createdAt,value
2024-03-06T00:01:51.346Z,103189.19
2024-03-06T00:04:20.284Z,103184.97
2024-03-06T00:06:48.403Z,103194.47
2024-03-06T00:09:17.746Z,103191.53
2024-03-06T00:11:45.676Z,103192.28
2024-03-06T00:14:14.724Z,103196.91
2024-03-06T00:16:42.818Z,103189.78
2024-03-06T00:19:13.641Z,103191.25
2024-03-06T00:21:41.769Z,103193.41
2024-03-06T00:24:10.323Z,103190.53
2024-03-06T00:26:41.937Z,103197.41
2024-03-06T00:29:11.108Z,103196.75
2024-03-06T00:31:39.487Z,103191.31
2024-03-06T00:34:07.384Z,103192.84
2024-03-06T00:36:35.315Z,103185.66
2024-03-06T00:39:05.677Z,103195.84
2024-03-06T00:41:33.361Z,103197.75
2024-03-06T00:44:03.127Z,103197.19
2024-03-06T00:46:31.397Z,103189.28
2024-03-06T00:48:59.334Z,103195.69
2024-03-06T00:51:36.847Z,103197.06
2024-03-06T00:54:10.156Z,103196.84
2024-03-06T00:56:40.526Z,103194.09
2024-03-06T00:59:10.277Z,103189.78
2024-03-06T01:01:38.491Z,103195.44
2024-03-06T01:04:06.783Z,103171.50
2024-03-06T01:06:34.726Z,103201.06
2024-03-06T01:09:02.899Z,103189.69
2024-03-06T01:11:31.223Z,103195.78
2024-03-06T01:13:59.168Z,103189.06
2024-03-06T01:16:28.496Z,103196.25
2024-03-06T01:18:56.573Z,103197.94
2024-03-06T01:21:24.642Z,103200.69
2024-03-06T01:23:52.501Z,103196.88
2024-03-06T01:26:20.597Z,103193.53
2024-03-06T01:28:48.515Z,103193.03
2024-03-06T01:31:16.452Z,103195.91
2024-03-06T01:33:45.900Z,103196.91
2024-03-06T01:36:13.808Z,103191.56
2024-03-06T01:38:42.667Z,103201.13
2024-03-06T01:41:10.896Z,103192.59
2024-03-06T01:43:40.553Z,103189.84
2024-03-06T01:46:08.692Z,103200.31
2024-03-06T01:48:37.545Z,103195.03
2024-03-06T01:51:07.535Z,103201.47
2024-03-06T01:53:36.750Z,103195.53
2024-03-06T01:56:06.799Z,103202.34
2024-03-06T01:58:36.121Z,103201.59
2024-03-06T02:01:07.215Z,103197.47
2024-03-06T02:03:35.954Z,103191.66
2024-03-06T02:06:07.329Z,103208.38
2024-03-06T02:08:35.288Z,103199.59
2024-03-06T02:11:04.874Z,103201.75
2024-03-06T02:13:33.242Z,103200.16
2024-03-06T02:16:01.459Z,103182.78
2024-03-06T02:18:29.564Z,103202.88
2024-03-06T02:20:58.990Z,103204.69
2024-03-06T02:23:27.001Z,103200.50
2024-03-06T02:25:57.743Z,103198.69
2024-03-06T02:28:26.259Z,103192.81
2024-03-06T02:30:55.357Z,103195.47
2024-03-06T02:33:23.298Z,103197.28
2024-03-06T02:35:51.197Z,103194.00
2024-03-06T02:38:20.552Z,103201.81
2024-03-06T02:40:49.270Z,103209.59
2024-03-06T02:43:17.381Z,103193.28
2024-03-06T02:45:45.833Z,103198.00
2024-03-06T02:48:13.837Z,103203.97
2024-03-06T02:50:41.853Z,103201.44
2024-03-06T02:53:09.913Z,103199.81
2024-03-06T02:55:39.398Z,103209.03
2024-03-06T02:58:07.348Z,103214.06
2024-03-06T03:00:35.452Z,103213.47
2024-03-06T03:03:03.706Z,103216.06
2024-03-06T03:05:31.818Z,103208.84
2024-03-06T03:08:00.220Z,103219.41
2024-03-06T03:10:28.140Z,103216.78
2024-03-06T03:12:57.444Z,103216.00
2024-03-06T03:15:25.516Z,103213.50
2024-03-06T03:17:53.548Z,103210.91
2024-03-06T03:20:22.169Z,103208.84
2024-03-06T03:22:50.613Z,103213.16
2024-03-06T03:25:18.501Z,103204.78
2024-03-06T03:27:46.793Z,103204.81
2024-03-06T03:30:17.252Z,103206.25
2024-03-06T03:32:45.201Z,103206.44
2024-03-06T03:35:13.321Z,103197.56
2024-03-06T03:37:41.407Z,103206.97
2024-03-06T03:40:12.622Z,103206.91
2024-03-06T03:42:40.916Z,103204.97
2024-03-06T03:45:09.110Z,103206.09
2024-03-06T03:47:39.348Z,103214.25
2024-03-06T03:50:11.362Z,103212.25
2024-03-06T03:52:43.330Z,103211.22
2024-03-06T03:55:16.670Z,103206.50
2024-03-06T03:57:44.877Z,103208.22
2024-03-06T04:00:13.755Z,103202.22
2024-03-06T04:02:43.419Z,103220.31
2024-03-06T04:05:12.164Z,103205.84
2024-03-06T04:07:40.312Z,103206.34
2024-03-06T04:10:12.167Z,103210.81
2024-03-06T04:12:41.095Z,103210.91
2024-03-06T04:15:09.918Z,103211.03
2024-03-06T04:17:38.402Z,103212.03
2024-03-06T04:20:09.281Z,103212.63
2024-03-06T04:22:37.719Z,103217.19
2024-03-06T04:25:06.426Z,103224.78
2024-03-06T04:27:35.243Z,103223.38
2024-03-06T04:30:03.416Z,103228.63
2024-03-06T04:32:31.341Z,103228.72
2024-03-06T04:34:59.443Z,103223.06
2024-03-06T04:37:30.710Z,103222.28
2024-03-06T04:39:58.933Z,103225.53
2024-03-06T04:42:27.247Z,103223.88
2024-03-06T04:44:56.417Z,103230.81
2024-03-06T04:47:30.073Z,103222.06
2024-03-06T04:49:59.158Z,103218.78
2024-03-06T04:52:29.769Z,103233.78
2024-03-06T04:54:57.674Z,103236.09
2024-03-06T04:57:25.700Z,103230.28
2024-03-06T04:59:53.743Z,103238.63
2024-03-06T05:02:23.714Z,103235.91
2024-03-06T06:00:12.977Z,103264.94
2024-03-06T06:02:40.698Z,103277.53
2024-03-06T06:05:22.333Z,103281.59
2024-03-06T06:07:52.168Z,103279.97
2024-03-06T06:10:21.577Z,103287.47
2024-03-06T06:12:51.906Z,103289.47
2024-03-06T06:15:19.953Z,103293.69
2024-03-06T06:17:48.065Z,103298.00
2024-03-06T06:20:17.384Z,103295.56
2024-03-06T06:22:46.189Z,103290.88
2024-03-06T06:25:14.475Z,103288.53
2024-03-06T06:27:45.318Z,103299.03
2024-03-06T06:30:15.535Z,103301.03
2024-03-06T06:32:44.532Z,103300.31
2024-03-06T06:35:14.750Z,103305.88
2024-03-06T06:37:43.101Z,103302.72
2024-03-06T06:40:13.057Z,103313.88
2024-03-06T06:42:48.872Z,103310.59
2024-03-06T06:45:18.200Z,103310.06
2024-03-06T06:47:47.153Z,103308.53
2024-03-06T06:50:15.364Z,103304.88
2024-03-06T06:52:43.508Z,103310.84
2024-03-06T06:55:12.838Z,103307.56
2024-03-06T06:57:41.446Z,103311.59
2024-03-06T07:00:13.083Z,103312.84
2024-03-06T07:02:43.105Z,103316.56
2024-03-06T07:05:12.153Z,103312.91
2024-03-06T07:07:40.673Z,103318.25
2024-03-06T07:10:09.906Z,103308.03
2024-03-06T07:12:38.243Z,103319.38
2024-03-06T07:15:07.714Z,103312.22
2024-03-06T07:17:36.363Z,103305.38
2024-03-06T07:20:07.705Z,103321.16
2024-03-06T07:22:35.894Z,103317.09
2024-03-06T07:25:04.160Z,103317.22
2024-03-06T07:27:32.070Z,103318.28
2024-03-06T07:30:01.065Z,103316.16
2024-03-06T07:32:29.367Z,103323.41
2024-03-06T07:34:59.559Z,103323.03
2024-03-06T07:37:28.899Z,103324.22
2024-03-06T07:39:56.878Z,103321.44
2024-03-06T07:42:24.825Z,103332.84
2024-03-06T07:44:52.734Z,103338.34
2024-03-06T07:47:22.375Z,103337.91
2024-03-06T07:49:51.692Z,103335.41
2024-03-06T07:52:19.728Z,103336.00
2024-03-06T07:54:49.196Z,103336.19
2024-03-06T07:57:17.498Z,103323.56
2024-03-06T07:59:45.415Z,103334.72
2024-03-06T08:02:13.623Z,103334.03
2024-03-06T08:04:41.532Z,103321.97
2024-03-06T08:07:11.368Z,103333.50
2024-03-06T08:09:39.381Z,103327.06
2024-03-06T08:12:09.712Z,103336.84
2024-03-06T08:14:37.751Z,103334.34
2024-03-06T08:17:06.045Z,103336.78
2024-03-06T08:19:33.958Z,103334.41
2024-03-06T08:22:05.543Z,103339.56
2024-03-06T08:24:34.683Z,103332.91
2024-03-06T08:27:03.265Z,103338.94
2024-03-06T08:29:32.760Z,103349.22
2024-03-06T08:32:02.354Z,103343.22
2024-03-06T08:34:33.099Z,103348.31
2024-03-06T08:37:01.176Z,103349.16
2024-03-06T08:39:29.254Z,103352.19
2024-03-06T08:41:59.167Z,103349.41
2024-03-06T08:44:27.152Z,103357.28
2024-03-06T08:46:56.542Z,103350.50
2024-03-06T08:49:24.536Z,103351.03
2024-03-06T08:51:52.597Z,103354.31
2024-03-06T08:54:20.546Z,103336.38
2024-03-06T08:56:48.483Z,103359.41
2024-03-06T08:59:16.645Z,103359.00
2024-03-06T09:01:44.531Z,103341.19
2024-03-06T09:04:13.778Z,103362.25
2024-03-06T09:06:41.851Z,103365.94
2024-03-06T09:09:10.717Z,103356.94
2024-03-06T09:11:39.249Z,103363.75
2024-03-06T09:14:07.410Z,103344.47
2024-03-06T09:16:35.461Z,103345.69
2024-03-06T09:19:03.320Z,103354.00
2024-03-06T09:21:32.690Z,103347.88
2024-03-06T09:24:00.715Z,103354.00
2024-03-06T09:26:28.623Z,103355.03
2024-03-06T09:28:56.532Z,103350.41
2024-03-06T09:31:24.665Z,103357.81
2024-03-06T09:33:52.646Z,103348.47
2024-03-06T09:36:20.592Z,103356.25
2024-03-06T09:38:50.184Z,103360.00
2024-03-06T09:41:18.170Z,103356.72
2024-03-06T09:43:46.826Z,103349.31
2024-03-06T09:46:14.869Z,103347.81
2024-03-06T09:48:47.880Z,103360.50
2024-03-06T09:51:16.327Z,103349.19
2024-03-06T09:53:45.232Z,103349.03
2024-03-06T09:56:14.704Z,103346.47
2024-03-06T09:58:43.463Z,103350.94
2024-03-06T10:01:14.787Z,103352.09
2024-03-06T10:03:42.995Z,103350.09
2024-03-06T10:08:44.789Z,103352.28
2024-03-06T10:11:15.072Z,103356.47
2024-03-06T10:13:43.114Z,103344.28
2024-03-06T10:16:12.522Z,103352.84
2024-03-06T10:18:41.132Z,103355.47
2024-03-06T10:21:09.294Z,103352.41
2024-03-06T10:23:41.218Z,103363.66
2024-03-06T10:26:10.568Z,103353.69
2024-03-06T10:28:40.218Z,103347.78
2024-03-06T10:31:09.507Z,103350.69
2024-03-06T10:33:39.020Z,103352.03
2024-03-06T10:36:07.723Z,103356.78
2024-03-06T10:38:40.648Z,103357.34
2024-03-06T10:41:15.109Z,103356.34
2024-03-06T10:43:50.539Z,103357.00
2024-03-06T10:46:22.112Z,103353.47
2024-03-06T10:48:53.140Z,103351.44
2024-03-06T10:51:22.270Z,103344.00
2024-03-06T10:53:51.951Z,103348.16
2024-03-06T10:56:20.891Z,103348.66
2024-03-06T10:58:53.198Z,103344.50
2024-03-06T11:01:21.721Z,103339.13
2024-03-06T11:03:50.634Z,103354.75
2024-03-06T11:06:19.073Z,103338.38
2024-03-06T11:08:47.125Z,103343.72
2024-03-06T11:11:23.214Z,103345.31
2024-03-06T11:13:56.385Z,103339.81
2024-03-06T11:16:30.032Z,103338.75
2024-03-06T11:19:08.614Z,103343.03
2024-03-06T11:21:37.016Z,103335.88
2024-03-06T11:24:21.792Z,103337.47
2024-03-06T11:26:51.537Z,103339.50
2024-03-06T11:29:21.958Z,103343.16
2024-03-06T11:32:04.380Z,103325.13
2024-03-06T11:34:36.765Z,103327.53
2024-03-06T11:37:10.997Z,103331.34
2024-03-06T11:39:42.493Z,103340.94
2024-03-06T11:42:11.127Z,103342.31
2024-03-06T11:44:56.360Z,103322.47
2024-03-06T11:47:24.679Z,103333.03
2024-03-06T11:49:54.536Z,103326.13
2024-03-06T11:52:22.555Z,103319.75
2024-03-06T11:54:50.762Z,103320.72
2024-03-06T11:57:21.955Z,103319.44
2024-03-06T11:59:51.742Z,103326.31
2024-03-06T12:02:19.834Z,103316.75
2024-03-06T12:04:47.723Z,103314.94
2024-03-06T12:07:17.168Z,103326.97
2024-03-06T12:09:45.082Z,103317.78
2024-03-06T12:12:13.969Z,103304.09
2024-03-06T12:14:42.695Z,103320.06
2024-03-06T12:17:17.047Z,103315.44
2024-03-06T12:19:47.066Z,103313.22
2024-03-06T12:22:16.607Z,103308.63
2024-03-06T12:24:44.921Z,103311.72
2024-03-06T12:27:14.235Z,103309.16
2024-03-06T12:29:43.584Z,103291.38
2024-03-06T12:32:21.089Z,103302.91
2024-03-06T12:35:01.192Z,103300.34
2024-03-06T12:37:33.945Z,103290.94
2024-03-06T12:40:02.518Z,103300.56
2024-03-06T12:42:30.500Z,103300.75
2024-03-06T12:44:58.507Z,103299.28
2024-03-06T12:47:27.990Z,103297.69
2024-03-06T12:49:59.243Z,103296.03
2024-03-06T12:52:27.294Z,103299.47
2024-03-06T12:54:55.208Z,103292.56
2024-03-06T12:57:23.298Z,103289.13
2024-03-06T12:59:51.496Z,103296.00
2024-03-06T13:02:19.536Z,103296.88
2024-03-06T13:04:50.253Z,103288.25
2024-03-06T13:07:18.312Z,103289.97
2024-03-06T13:09:46.326Z,103291.69
2024-03-06T13:12:14.475Z,103290.81
2024-03-06T13:14:42.626Z,103283.97
2024-03-06T13:17:10.670Z,103290.84
2024-03-06T13:19:38.738Z,103293.34
2024-03-06T13:22:09.054Z,103284.59
2024-03-06T13:24:39.658Z,103284.19
2024-03-06T13:27:10.023Z,103287.13
2024-03-06T13:29:38.026Z,103279.81
2024-03-06T13:32:06.455Z,103276.13
2024-03-06T13:34:34.694Z,103284.50
2024-03-06T13:37:02.685Z,103282.63
2024-03-06T13:39:32.905Z,103268.97
2024-03-06T13:42:01.128Z,103274.09
2024-03-06T13:44:29.328Z,103271.53
2024-03-06T13:46:57.300Z,103266.91
2024-03-06T13:49:38.130Z,103275.88
2024-03-06T13:52:08.188Z,103272.34
2024-03-06T13:54:38.540Z,103279.97
2024-03-06T13:57:06.865Z,103276.59
2024-03-06T13:59:35.534Z,103274.53
2024-03-06T14:02:05.107Z,103257.63
2024-03-06T14:04:33.007Z,103274.00
2024-03-06T14:07:01.236Z,103267.13
2024-03-06T14:09:29.528Z,103276.69
2024-03-06T14:12:00.403Z,103263.28
2024-03-06T14:14:28.662Z,103274.50
2024-03-06T14:16:57.254Z,103261.56
2024-03-06T14:19:25.260Z,103253.84
2024-03-06T14:21:53.257Z,103264.16
2024-03-06T14:24:21.839Z,103252.78
2024-03-06T14:26:51.006Z,103262.22
2024-03-06T14:29:21.656Z,103259.47
2024-03-06T14:31:49.741Z,103265.19
2024-03-06T14:34:17.632Z,103268.66
2024-03-06T14:36:45.717Z,103267.19
2024-03-06T14:39:14.724Z,103261.69
2024-03-06T14:41:43.814Z,103258.56
2024-03-06T14:44:11.942Z,103259.69
2024-03-06T14:46:42.330Z,103257.00
2024-03-06T14:49:11.905Z,103261.88
2024-03-06T14:51:39.818Z,103259.31
2024-03-06T14:54:07.826Z,103262.41
2024-03-06T14:56:35.759Z,103262.25
2024-03-06T14:59:07.147Z,103250.69
2024-03-06T15:01:35.595Z,103255.59
2024-03-06T15:04:04.999Z,103254.59
2024-03-06T15:06:33.072Z,103250.22
2024-03-06T15:09:01.172Z,103255.31
2024-03-06T15:11:33.249Z,103247.53
2024-03-06T15:14:01.612Z,103254.13
2024-03-06T15:16:29.974Z,103242.94
2024-03-06T15:18:58.454Z,103237.75
2024-03-06T15:21:27.850Z,103246.31
2024-03-06T15:23:56.004Z,103248.25
2024-03-06T15:26:24.447Z,103249.34
2024-03-06T15:28:55.665Z,103250.84
2024-03-06T15:31:23.725Z,103245.59
2024-03-06T15:33:52.607Z,103246.84
2024-03-06T15:36:20.635Z,103240.53
2024-03-06T15:38:50.300Z,103241.22
2024-03-06T15:41:21.836Z,103240.97
2024-03-06T15:43:50.066Z,103237.22
2024-03-06T15:46:18.094Z,103249.06
2024-03-06T15:48:46.199Z,103247.94
2024-03-06T15:51:14.597Z,103248.69
2024-03-06T15:53:42.778Z,103249.31
2024-03-06T15:56:12.651Z,103244.94
2024-03-06T15:58:41.386Z,103243.25
2024-03-06T16:01:09.445Z,103244.13
2024-03-06T16:03:37.328Z,103245.66
2024-03-06T16:06:14.346Z,103250.47
2024-03-06T16:08:46.438Z,103245.97
2024-03-06T16:11:16.044Z,103246.38
2024-03-06T16:13:43.972Z,103238.75
2024-03-06T16:16:12.016Z,103247.13
2024-03-06T16:18:39.976Z,103250.31
2024-03-06T16:21:09.215Z,103245.63
2024-03-06T16:23:37.309Z,103246.97
2024-03-06T16:26:05.490Z,103248.97
2024-03-06T16:28:35.351Z,103239.69
2024-03-06T16:31:06.343Z,103236.91
2024-03-06T16:33:34.696Z,103238.13
2024-03-06T16:36:02.637Z,103244.03
2024-03-06T16:38:31.372Z,103227.50
2024-03-06T16:40:59.833Z,103231.28
2024-03-06T16:43:27.783Z,103238.63
2024-03-06T16:45:57.119Z,103230.59
2024-03-06T16:48:25.104Z,103238.78
2024-03-06T16:50:53.103Z,103239.19
2024-03-06T16:53:21.216Z,103243.03
2024-03-06T16:55:49.499Z,103236.84
2024-03-06T16:58:17.565Z,103243.16
2024-03-06T17:00:45.724Z,103240.16
2024-03-06T17:03:15.117Z,103241.34
2024-03-06T17:05:43.043Z,103234.84
2024-03-06T17:08:13.106Z,103237.97
2024-03-06T17:10:42.104Z,103243.66
2024-03-06T17:13:09.987Z,103248.78
2024-03-06T17:15:38.026Z,103237.31
2024-03-06T17:18:06.393Z,103242.03
2024-03-06T17:20:36.017Z,103238.81
2024-03-06T17:23:04.865Z,103238.38
2024-03-06T17:25:33.165Z,103236.91
2024-03-06T17:28:01.050Z,103240.88
2024-03-06T17:30:29.201Z,103244.97
2024-03-06T17:33:00.785Z,103244.56
2024-03-06T17:35:28.718Z,103246.63
2024-03-06T17:37:57.980Z,103247.31
2024-03-06T17:40:26.303Z,103243.38
2024-03-06T17:42:54.201Z,103257.63
2024-03-06T17:45:22.321Z,103257.50
2024-03-06T17:47:50.468Z,103256.50
2024-03-06T17:50:18.626Z,103255.59
2024-03-06T17:52:46.674Z,103254.47
2024-03-06T17:55:16.048Z,103255.63
2024-03-06T17:57:47.600Z,103242.38
2024-03-06T18:00:16.712Z,103242.47
2024-03-06T18:02:45.583Z,103246.28
2024-03-06T18:05:14.342Z,103251.97
2024-03-06T18:07:45.792Z,103246.94
2024-03-06T18:10:17.057Z,103252.13
2024-03-06T18:12:45.331Z,103250.03
2024-03-06T18:15:13.530Z,103254.25
2024-03-06T18:17:42.658Z,103258.72
2024-03-06T18:20:11.403Z,103256.06
2024-03-06T18:22:39.483Z,103252.56
2024-03-06T18:25:08.824Z,103245.03
2024-03-06T18:27:38.203Z,103263.06
2024-03-06T18:30:10.695Z,103253.84
2024-03-06T18:32:38.913Z,103253.72
2024-03-06T18:35:07.862Z,103250.25
2024-03-06T18:37:35.780Z,103256.16
2024-03-06T18:40:04.373Z,103257.47
2024-03-06T18:42:32.258Z,103249.09
2024-03-06T18:45:01.714Z,103255.91
2024-03-06T18:47:29.868Z,103257.28
2024-03-06T18:49:57.884Z,103243.41
2024-03-06T18:52:25.884Z,103256.97
2024-03-06T18:54:53.921Z,103265.72
2024-03-06T18:57:21.966Z,103260.97
2024-03-06T18:59:50.794Z,103268.19
2024-03-06T19:02:20.767Z,103252.25
2024-03-06T19:04:48.934Z,103259.34
2024-03-06T19:07:19.792Z,103262.25
2024-03-06T19:09:47.988Z,103258.28
2024-03-06T19:12:16.349Z,103247.34
2024-03-06T19:14:45.560Z,103257.47
2024-03-06T19:17:13.674Z,103252.47
2024-03-06T19:19:44.210Z,103254.38
2024-03-06T19:22:12.333Z,103255.00
2024-03-06T19:24:40.356Z,103257.03
2024-03-06T19:27:08.703Z,103265.16
2024-03-06T19:29:36.657Z,103266.66
2024-03-06T19:32:05.121Z,103263.19
2024-03-06T19:34:34.772Z,103270.28
2024-03-06T19:37:04.408Z,103265.66
2024-03-06T19:39:32.465Z,103268.75
2024-03-06T19:42:05.967Z,103253.16
2024-03-06T19:44:34.187Z,103258.97
2024-03-06T19:47:02.091Z,103261.72
2024-03-06T19:49:30.935Z,103270.19
2024-03-06T19:51:59.368Z,103271.00
2024-03-06T19:54:30.227Z,103270.84
2024-03-06T19:57:00.014Z,103256.94
2024-03-06T19:59:28.188Z,103261.00
2024-03-06T20:01:57.113Z,103259.63
2024-03-06T20:04:25.454Z,103265.41
2024-03-06T20:06:53.439Z,103257.41
2024-03-06T20:09:21.403Z,103259.72
2024-03-06T20:11:50.888Z,103259.63
2024-03-06T20:14:18.969Z,103262.34
2024-03-06T20:16:46.952Z,103266.13
2024-03-06T20:19:14.969Z,103256.66
2024-03-06T20:21:43.020Z,103270.66
2024-03-06T20:24:13.823Z,103267.97
2024-03-06T20:26:43.723Z,103263.72
2024-03-06T20:29:13.937Z,103268.91
2024-03-06T20:31:46.992Z,103258.88
2024-03-06T20:34:17.451Z,103267.19
2024-03-06T20:36:45.498Z,103272.41
2024-03-06T20:39:16.625Z,103268.53
2024-03-06T20:41:44.880Z,103267.41
2024-03-06T20:44:15.704Z,103262.97
2024-03-06T20:46:44.963Z,103264.88
2024-03-06T20:49:13.187Z,103262.97
2024-03-06T20:51:45.892Z,103268.59
2024-03-06T20:54:13.878Z,103258.63
2024-03-06T20:56:42.468Z,103271.34
2024-03-06T20:59:10.586Z,103250.78
2024-03-06T21:01:40.006Z,103264.94
2024-03-06T21:04:09.028Z,103262.97
2024-03-06T21:06:37.755Z,103263.41
2024-03-06T21:09:05.852Z,103253.91
2024-03-06T21:11:33.863Z,103253.28
2024-03-06T21:14:06.280Z,103259.44
2024-03-06T21:16:34.521Z,103260.88
2024-03-06T21:19:04.019Z,103249.16
2024-03-06T21:21:31.867Z,103248.50
2024-03-06T21:24:00.300Z,103260.88
2024-03-06T21:26:31.388Z,103264.00
2024-03-06T21:28:59.503Z,103257.53
2024-03-06T21:31:27.460Z,103253.97
2024-03-06T21:33:57.913Z,103240.59
2024-03-06T21:36:27.959Z,103253.91
2024-03-06T21:38:55.888Z,103257.69
2024-03-06T21:41:24.053Z,103256.97
2024-03-06T21:43:52.262Z,103256.34
2024-03-06T21:46:23.235Z,103260.66
2024-03-06T21:48:51.164Z,103251.84
2024-03-06T21:51:19.222Z,103260.03
2024-03-06T21:53:48.645Z,103267.00
2024-03-06T21:56:16.689Z,103257.00
2024-03-06T21:58:45.473Z,103266.66
2024-03-06T22:01:13.991Z,103268.22
2024-03-06T22:03:41.911Z,103264.00
2024-03-06T22:06:09.855Z,103260.44
2024-03-06T22:08:39.430Z,103258.44
2024-03-06T22:11:13.202Z,103262.97
2024-03-06T22:13:42.114Z,103257.91
2024-03-06T22:16:09.994Z,103254.09
2024-03-06T22:18:37.926Z,103262.91
2024-03-06T22:21:07.980Z,103259.72
2024-03-06T22:23:36.021Z,103267.50
2024-03-06T22:26:04.404Z,103268.19
2024-03-06T22:28:33.743Z,103260.59
2024-03-06T22:31:01.679Z,103262.69
2024-03-06T22:33:29.754Z,103271.88
2024-03-06T22:35:57.777Z,103266.22
2024-03-06T22:38:28.084Z,103255.13
2024-03-06T22:40:56.465Z,103262.59
2024-03-06T22:43:24.730Z,103255.47
2024-03-06T22:45:54.027Z,103254.41
2024-03-06T22:48:22.173Z,103257.59
2024-03-06T22:50:50.493Z,103254.53
2024-03-06T22:53:18.432Z,103260.72
2024-03-06T22:55:46.494Z,103259.53
2024-03-06T22:58:14.539Z,103259.19
2024-03-06T23:00:42.445Z,103257.88
2024-03-06T23:03:12.035Z,103260.06
2024-03-06T23:05:40.254Z,103252.22
2024-03-06T23:08:09.370Z,103253.00
2024-03-06T23:10:41.362Z,103261.47
2024-03-06T23:13:09.488Z,103252.44
2024-03-06T23:15:37.400Z,103250.31
2024-03-06T23:18:06.959Z,103246.59
2024-03-06T23:20:36.747Z,103252.50
2024-03-06T23:23:04.955Z,103250.47
2024-03-06T23:25:33.310Z,103252.41
2024-03-06T23:28:06.433Z,103243.50
2024-03-06T23:30:37.066Z,103261.25
2024-03-06T23:33:06.681Z,103253.00
2024-03-06T23:35:36.830Z,103259.69
2024-03-06T23:38:08.218Z,103254.56
2024-03-06T23:43:04.784Z,103252.66
2024-03-06T23:45:32.681Z,103252.75
2024-03-06T23:48:01.492Z,103252.75
2024-03-06T23:50:29.875Z,103236.06
2024-03-06T23:52:59.206Z,103249.44
2024-03-06T23:55:27.219Z,103245.25
2024-03-06T23:57:55.857Z,103243.19
